sensor_id;sensor_type;location;lat;lon;timestamp;P1;durP1;ratioP1;P2;durP2;ratioP2
10094;SDS011;5086;50.830;7.102;2023-07-20T00:00:26;3.37;;;2.20;;
10094;SDS011;5086;50.830;7.102;2023-07-20T00:03:05;2.30;;;1.90;;
10094;SDS011;5086;50.830;7.102;2023-07-20T00:05:37;1.70;;;1.60;;
10094;SDS011;5086;50.830;7.102;2023-07-20T00:08:04;1.87;;;1.60;;
10094;SDS011;5086;50.830;7.102;2023-07-20T00:10:31;2.63;;;1.80;;
10094;SDS011;5086;50.830;7.102;2023-07-20T00:12:58;2.65;;;2.15;;
10094;SDS011;5086;50.830;7.102;2023-07-20T00:15:26;8.80;;;2.40;;
10094;SDS011;5086;50.830;7.102;2023-07-20T00:17:53;2.60;;;1.50;;
10094;SDS011;5086;50.830;7.102;2023-07-20T00:20:21;3.63;;;2.20;;
10094;SDS011;5086;50.830;7.102;2023-07-20T00:22:49;8.80;;;1.97;;
10094;SDS011;5086;50.830;7.102;2023-07-20T00:25:17;2.70;;;1.67;;
10094;SDS011;5086;50.830;7.102;2023-07-20T00:27:44;4.50;;;2.20;;
10094;SDS011;5086;50.830;7.102;2023-07-20T00:30:11;1.83;;;1.73;;
10094;SDS011;5086;50.830;7.102;2023-07-20T00:32:41;2.90;;;2.10;;
10094;SDS011;5086;50.830;7.102;2023-07-20T00:35:08;2.03;;;1.70;;
10094;SDS011;5086;50.830;7.102;2023-07-20T00:37:35;2.57;;;1.93;;
10094;SDS011;5086;50.830;7.102;2023-07-20T00:40:03;2.83;;;1.90;;
10094;SDS011;5086;50.830;7.102;2023-07-20T00:42:32;2.22;;;1.70;;
10094;SDS011;5086;50.830;7.102;2023-07-20T00:44:59;4.07;;;1.80;;
10094;SDS011;5086;50.830;7.102;2023-07-20T00:47:25;5.10;;;2.20;;
10094;SDS011;5086;50.830;7.102;2023-07-20T00:49:54;3.88;;;1.90;;
10094;SDS011;5086;50.830;7.102;2023-07-20T00:52:21;3.10;;;2.20;;
10094;SDS011;5086;50.830;7.102;2023-07-20T00:54:50;3.10;;;1.73;;
10094;SDS011;5086;50.830;7.102;2023-07-20T00:57:21;3.97;;;1.80;;
10094;SDS011;5086;50.830;7.102;2023-07-20T00:59:50;2.10;;;1.50;;
10094;SDS011;5086;50.830;7.102;2023-07-20T01:02:17;2.40;;;1.80;;
10094;SDS011;5086;50.830;7.102;2023-07-20T01:04:44;3.37;;;1.63;;
10094;SDS011;5086;50.830;7.102;2023-07-20T01:07:13;14.03;;;1.43;;
10094;SDS011;5086;50.830;7.102;2023-07-20T01:09:46;3.67;;;1.90;;
10094;SDS011;5086;50.830;7.102;2023-07-20T01:12:18;2.97;;;1.90;;
10094;SDS011;5086;50.830;7.102;2023-07-20T01:14:49;2.23;;;1.63;;
10094;SDS011;5086;50.830;7.102;2023-07-20T01:17:17;3.63;;;1.90;;
10094;SDS011;5086;50.830;7.102;2023-07-20T01:19:44;2.10;;;1.90;;
10094;SDS011;5086;50.830;7.102;2023-07-20T01:22:15;2.03;;;1.70;;
10094;SDS011;5086;50.830;7.102;2023-07-20T01:25:03;2.90;;;1.40;;
10094;SDS011;5086;50.830;7.102;2023-07-20T01:27:45;5.57;;;2.03;;
10094;SDS011;5086;50.830;7.102;2023-07-20T01:30:52;2.73;;;1.90;;
10094;SDS011;5086;50.830;7.102;2023-07-20T01:33:27;2.63;;;1.50;;
10094;SDS011;5086;50.830;7.102;2023-07-20T01:35:56;4.93;;;2.03;;
10094;SDS011;5086;50.830;7.102;2023-07-20T01:38:25;3.65;;;1.58;;
10094;SDS011;5086;50.830;7.102;2023-07-20T01:40:52;3.10;;;2.10;;
10094;SDS011;5086;50.830;7.102;2023-07-20T01:43:20;5.78;;;1.50;;
10094;SDS011;5086;50.830;7.102;2023-07-20T01:45:47;5.20;;;2.27;;
10094;SDS011;5086;50.830;7.102;2023-07-20T01:48:16;2.55;;;1.58;;
10094;SDS011;5086;50.830;7.102;2023-07-20T01:50:44;2.47;;;1.60;;
10094;SDS011;5086;50.830;7.102;2023-07-20T01:53:11;3.03;;;1.73;;
10094;SDS011;5086;50.830;7.102;2023-07-20T01:55:38;4.70;;;1.83;;
10094;SDS011;5086;50.830;7.102;2023-07-20T01:58:05;2.20;;;1.63;;
10094;SDS011;5086;50.830;7.102;2023-07-20T02:00:32;2.30;;;1.67;;
10094;SDS011;5086;50.830;7.102;2023-07-20T02:02:59;3.17;;;1.77;;
10094;SDS011;5086;50.830;7.102;2023-07-20T02:05:26;2.60;;;1.73;;
10094;SDS011;5086;50.830;7.102;2023-07-20T02:07:54;2.93;;;1.60;;
10094;SDS011;5086;50.830;7.102;2023-07-20T02:10:21;4.45;;;1.73;;
10094;SDS011;5086;50.830;7.102;2023-07-20T02:12:48;1.75;;;1.40;;
10094;SDS011;5086;50.830;7.102;2023-07-20T02:15:15;3.60;;;2.07;;
10094;SDS011;5086;50.830;7.102;2023-07-20T02:17:43;2.00;;;1.47;;
10094;SDS011;5086;50.830;7.102;2023-07-20T02:20:11;3.15;;;1.75;;
10094;SDS011;5086;50.830;7.102;2023-07-20T02:22:38;3.43;;;1.97;;
10094;SDS011;5086;50.830;7.102;2023-07-20T02:25:08;2.13;;;1.55;;
10094;SDS011;5086;50.830;7.102;2023-07-20T02:27:35;5.17;;;2.23;;
10094;SDS011;5086;50.830;7.102;2023-07-20T02:30:02;2.50;;;1.67;;
10094;SDS011;5086;50.830;7.102;2023-07-20T02:32:29;3.47;;;1.70;;
10094;SDS011;5086;50.830;7.102;2023-07-20T02:34:57;1.87;;;1.67;;
10094;SDS011;5086;50.830;7.102;2023-07-20T02:37:23;5.50;;;1.77;;
10094;SDS011;5086;50.830;7.102;2023-07-20T02:39:50;2.42;;;1.70;;
10094;SDS011;5086;50.830;7.102;2023-07-20T02:42:19;6.55;;;2.00;;
10094;SDS011;5086;50.830;7.102;2023-07-20T02:44:47;3.60;;;1.97;;
10094;SDS011;5086;50.830;7.102;2023-07-20T02:47:14;2.45;;;1.60;;
10094;SDS011;5086;50.830;7.102;2023-07-20T02:49:41;2.30;;;2.10;;
10094;SDS011;5086;50.830;7.102;2023-07-20T02:52:08;2.75;;;2.00;;
10094;SDS011;5086;50.830;7.102;2023-07-20T02:54:35;2.78;;;1.70;;
10094;SDS011;5086;50.830;7.102;2023-07-20T02:57:02;6.47;;;2.10;;
10094;SDS011;5086;50.830;7.102;2023-07-20T02:59:31;3.45;;;2.05;;
10094;SDS011;5086;50.830;7.102;2023-07-20T03:01:57;4.25;;;1.90;;
10094;SDS011;5086;50.830;7.102;2023-07-20T03:04:25;2.80;;;1.83;;
10094;SDS011;5086;50.830;7.102;2023-07-20T03:06:53;5.63;;;2.00;;
10094;SDS011;5086;50.830;7.102;2023-07-20T03:09:20;4.95;;;1.75;;
10094;SDS011;5086;50.830;7.102;2023-07-20T03:11:47;3.92;;;2.05;;
10094;SDS011;5086;50.830;7.102;2023-07-20T03:14:13;3.00;;;2.00;;
10094;SDS011;5086;50.830;7.102;2023-07-20T03:16:42;2.72;;;1.60;;
10094;SDS011;5086;50.830;7.102;2023-07-20T03:19:09;2.40;;;1.80;;
10094;SDS011;5086;50.830;7.102;2023-07-20T03:21:36;2.90;;;2.00;;
10094;SDS011;5086;50.830;7.102;2023-07-20T03:24:06;5.70;;;1.92;;
10094;SDS011;5086;50.830;7.102;2023-07-20T03:26:33;3.05;;;1.85;;
10094;SDS011;5086;50.830;7.102;2023-07-20T03:29:00;2.70;;;1.60;;
10094;SDS011;5086;50.830;7.102;2023-07-20T03:31:27;2.28;;;1.80;;
10094;SDS011;5086;50.830;7.102;2023-07-20T03:33:56;3.05;;;1.50;;
10094;SDS011;5086;50.830;7.102;2023-07-20T03:36:22;4.60;;;2.45;;
10094;SDS011;5086;50.830;7.102;2023-07-20T03:38:49;3.47;;;2.00;;
10094;SDS011;5086;50.830;7.102;2023-07-20T03:41:16;5.65;;;1.85;;
10094;SDS011;5086;50.830;7.102;2023-07-20T03:43:44;2.40;;;1.55;;
10094;SDS011;5086;50.830;7.102;2023-07-20T03:46:11;3.28;;;1.55;;
10094;SDS011;5086;50.830;7.102;2023-07-20T03:48:38;2.13;;;1.40;;
10094;SDS011;5086;50.830;7.102;2023-07-20T03:51:06;1.85;;;1.60;;
10094;SDS011;5086;50.830;7.102;2023-07-20T03:53:33;2.00;;;1.60;;
10094;SDS011;5086;50.830;7.102;2023-07-20T03:56:00;2.75;;;1.75;;
10094;SDS011;5086;50.830;7.102;2023-07-20T03:58:26;2.75;;;1.65;;
10094;SDS011;5086;50.830;7.102;2023-07-20T04:00:55;3.35;;;1.83;;
10094;SDS011;5086;50.830;7.102;2023-07-20T04:03:23;3.03;;;1.33;;
10094;SDS011;5086;50.830;7.102;2023-07-20T04:05:52;2.40;;;1.40;;
10094;SDS011;5086;50.830;7.102;2023-07-20T04:08:22;6.25;;;2.17;;
10094;SDS011;5086;50.830;7.102;2023-07-20T04:10:49;3.80;;;1.70;;
10094;SDS011;5086;50.830;7.102;2023-07-20T04:13:16;2.15;;;1.30;;
10094;SDS011;5086;50.830;7.102;2023-07-20T04:15:43;3.35;;;1.80;;
10094;SDS011;5086;50.830;7.102;2023-07-20T04:18:10;3.10;;;2.23;;
10094;SDS011;5086;50.830;7.102;2023-07-20T04:20:37;3.15;;;1.80;;
10094;SDS011;5086;50.830;7.102;2023-07-20T04:23:04;2.97;;;1.80;;
10094;SDS011;5086;50.830;7.102;2023-07-20T04:25:32;2.63;;;1.80;;
10094;SDS011;5086;50.830;7.102;2023-07-20T04:28:04;1.40;;;1.30;;
10094;SDS011;5086;50.830;7.102;2023-07-20T04:30:34;4.33;;;1.80;;
10094;SDS011;5086;50.830;7.102;2023-07-20T04:33:01;3.53;;;2.08;;
10094;SDS011;5086;50.830;7.102;2023-07-20T04:35:48;2.00;;;1.40;;
10094;SDS011;5086;50.830;7.102;2023-07-20T04:38:15;1.37;;;1.20;;
10094;SDS011;5086;50.830;7.102;2023-07-20T04:40:44;3.17;;;1.60;;
10094;SDS011;5086;50.830;7.102;2023-07-20T04:43:11;3.10;;;1.70;;
10094;SDS011;5086;50.830;7.102;2023-07-20T04:45:38;6.05;;;2.40;;
10094;SDS011;5086;50.830;7.102;2023-07-20T04:48:11;7.53;;;1.60;;
10094;SDS011;5086;50.830;7.102;2023-07-20T04:50:43;2.25;;;1.60;;
10094;SDS011;5086;50.830;7.102;2023-07-20T04:53:20;4.15;;;1.63;;
10094;SDS011;5086;50.830;7.102;2023-07-20T04:55:49;3.57;;;1.60;;
10094;SDS011;5086;50.830;7.102;2023-07-20T04:58:17;3.15;;;1.50;;
10094;SDS011;5086;50.830;7.102;2023-07-20T05:00:44;3.38;;;1.65;;
10094;SDS011;5086;50.830;7.102;2023-07-20T05:03:12;3.08;;;1.65;;
10094;SDS011;5086;50.830;7.102;2023-07-20T05:05:39;2.15;;;1.80;;
10094;SDS011;5086;50.830;7.102;2023-07-20T05:08:06;3.25;;;2.10;;
10094;SDS011;5086;50.830;7.102;2023-07-20T05:10:32;2.72;;;1.80;;
10094;SDS011;5086;50.830;7.102;2023-07-20T05:13:06;5.43;;;1.83;;
10094;SDS011;5086;50.830;7.102;2023-07-20T05:15:33;2.55;;;2.00;;
10094;SDS011;5086;50.830;7.102;2023-07-20T05:18:02;3.95;;;1.80;;
10094;SDS011;5086;50.830;7.102;2023-07-20T05:20:31;4.87;;;1.90;;
10094;SDS011;5086;50.830;7.102;2023-07-20T05:22:58;3.00;;;1.93;;
10094;SDS011;5086;50.830;7.102;2023-07-20T05:25:26;6.25;;;2.58;;
10094;SDS011;5086;50.830;7.102;2023-07-20T05:27:53;4.03;;;2.33;;
10094;SDS011;5086;50.830;7.102;2023-07-20T05:30:31;3.10;;;2.00;;
10094;SDS011;5086;50.830;7.102;2023-07-20T05:32:59;3.70;;;2.43;;
10094;SDS011;5086;50.830;7.102;2023-07-20T05:35:26;5.23;;;2.40;;
10094;SDS011;5086;50.830;7.102;2023-07-20T05:37:55;4.93;;;2.53;;
10094;SDS011;5086;50.830;7.102;2023-07-20T05:40:22;7.27;;;2.43;;
10094;SDS011;5086;50.830;7.102;2023-07-20T05:42:49;3.73;;;2.50;;
10094;SDS011;5086;50.830;7.102;2023-07-20T05:45:20;4.17;;;2.40;;
10094;SDS011;5086;50.830;7.102;2023-07-20T05:47:49;2.30;;;1.83;;
10094;SDS011;5086;50.830;7.102;2023-07-20T05:50:16;3.60;;;2.50;;
10094;SDS011;5086;50.830;7.102;2023-07-20T05:52:46;4.17;;;2.40;;
10094;SDS011;5086;50.830;7.102;2023-07-20T05:55:14;3.72;;;2.40;;
10094;SDS011;5086;50.830;7.102;2023-07-20T05:57:44;4.15;;;2.75;;
10094;SDS011;5086;50.830;7.102;2023-07-20T06:00:12;4.32;;;2.40;;
10094;SDS011;5086;50.830;7.102;2023-07-20T06:02:42;4.90;;;2.20;;
10094;SDS011;5086;50.830;7.102;2023-07-20T06:05:12;5.43;;;2.33;;
10094;SDS011;5086;50.830;7.102;2023-07-20T06:07:39;4.57;;;2.83;;
10094;SDS011;5086;50.830;7.102;2023-07-20T06:10:06;4.57;;;2.67;;
10094;SDS011;5086;50.830;7.102;2023-07-20T06:12:33;4.37;;;2.40;;
10094;SDS011;5086;50.830;7.102;2023-07-20T06:15:01;4.97;;;2.50;;
10094;SDS011;5086;50.830;7.102;2023-07-20T06:17:30;3.97;;;2.53;;
10094;SDS011;5086;50.830;7.102;2023-07-20T06:19:59;6.33;;;2.53;;
10094;SDS011;5086;50.830;7.102;2023-07-20T06:22:26;5.53;;;2.73;;
10094;SDS011;5086;50.830;7.102;2023-07-20T06:24:57;5.90;;;2.20;;
10094;SDS011;5086;50.830;7.102;2023-07-20T06:27:24;5.33;;;2.67;;
10094;SDS011;5086;50.830;7.102;2023-07-20T06:29:51;8.00;;;3.30;;
10094;SDS011;5086;50.830;7.102;2023-07-20T06:32:18;7.50;;;2.70;;
10094;SDS011;5086;50.830;7.102;2023-07-20T06:34:45;4.40;;;2.67;;
10094;SDS011;5086;50.830;7.102;2023-07-20T06:37:13;2.97;;;2.30;;
10094;SDS011;5086;50.830;7.102;2023-07-20T06:39:54;4.60;;;2.57;;
10094;SDS011;5086;50.830;7.102;2023-07-20T06:42:22;4.00;;;2.50;;
10094;SDS011;5086;50.830;7.102;2023-07-20T06:44:52;4.63;;;2.63;;
10094;SDS011;5086;50.830;7.102;2023-07-20T06:47:22;3.60;;;2.63;;
10094;SDS011;5086;50.830;7.102;2023-07-20T06:49:50;4.20;;;3.03;;
10094;SDS011;5086;50.830;7.102;2023-07-20T06:52:26;4.47;;;3.47;;
10094;SDS011;5086;50.830;7.102;2023-07-20T06:54:54;4.73;;;2.80;;
10094;SDS011;5086;50.830;7.102;2023-07-20T06:57:23;4.40;;;3.77;;
10094;SDS011;5086;50.830;7.102;2023-07-20T06:59:51;6.47;;;3.20;;
10094;SDS011;5086;50.830;7.102;2023-07-20T07:02:18;4.03;;;3.10;;
10094;SDS011;5086;50.830;7.102;2023-07-20T07:04:48;4.00;;;3.10;;
10094;SDS011;5086;50.830;7.102;2023-07-20T07:07:21;7.70;;;2.97;;
10094;SDS011;5086;50.830;7.102;2023-07-20T07:09:58;4.70;;;2.70;;
10094;SDS011;5086;50.830;7.102;2023-07-20T07:12:26;6.73;;;2.33;;
10094;SDS011;5086;50.830;7.102;2023-07-20T07:14:53;4.73;;;3.47;;
10094;SDS011;5086;50.830;7.102;2023-07-20T07:17:29;8.80;;;3.70;;
10094;SDS011;5086;50.830;7.102;2023-07-20T07:19:58;4.03;;;2.70;;
10094;SDS011;5086;50.830;7.102;2023-07-20T07:22:27;9.90;;;3.10;;
10094;SDS011;5086;50.830;7.102;2023-07-20T07:24:55;7.10;;;3.77;;
10094;SDS011;5086;50.830;7.102;2023-07-20T07:27:22;6.00;;;3.60;;
10094;SDS011;5086;50.830;7.102;2023-07-20T07:29:50;6.87;;;3.57;;
10094;SDS011;5086;50.830;7.102;2023-07-20T07:32:17;7.20;;;3.97;;
10094;SDS011;5086;50.830;7.102;2023-07-20T07:34:44;5.90;;;3.50;;
10094;SDS011;5086;50.830;7.102;2023-07-20T07:37:16;5.40;;;3.60;;
10094;SDS011;5086;50.830;7.102;2023-07-20T07:39:46;6.23;;;3.50;;
10094;SDS011;5086;50.830;7.102;2023-07-20T07:42:13;5.30;;;3.77;;
10094;SDS011;5086;50.830;7.102;2023-07-20T07:44:39;5.13;;;3.77;;
10094;SDS011;5086;50.830;7.102;2023-07-20T07:47:06;4.73;;;2.87;;
10094;SDS011;5086;50.830;7.102;2023-07-20T07:49:36;4.73;;;3.30;;
10094;SDS011;5086;50.830;7.102;2023-07-20T07:52:03;5.63;;;3.13;;
10094;SDS011;5086;50.830;7.102;2023-07-20T07:54:31;4.07;;;3.30;;
10094;SDS011;5086;50.830;7.102;2023-07-20T07:56:59;7.27;;;4.17;;
10094;SDS011;5086;50.830;7.102;2023-07-20T07:59:26;5.63;;;4.00;;
10094;SDS011;5086;50.830;7.102;2023-07-20T08:01:53;3.67;;;3.03;;
10094;SDS011;5086;50.830;7.102;2023-07-20T08:04:21;3.70;;;3.20;;
10094;SDS011;5086;50.830;7.102;2023-07-20T08:06:48;3.00;;;2.70;;
10094;SDS011;5086;50.830;7.102;2023-07-20T08:09:16;3.53;;;3.00;;
10094;SDS011;5086;50.830;7.102;2023-07-20T08:11:48;4.30;;;3.30;;
10094;SDS011;5086;50.830;7.102;2023-07-20T08:14:16;3.67;;;3.17;;
10094;SDS011;5086;50.830;7.102;2023-07-20T08:16:44;5.27;;;3.70;;
10094;SDS011;5086;50.830;7.102;2023-07-20T08:19:12;4.50;;;3.17;;
10094;SDS011;5086;50.830;7.102;2023-07-20T08:21:42;3.47;;;2.90;;
10094;SDS011;5086;50.830;7.102;2023-07-20T08:24:09;3.80;;;3.23;;
10094;SDS011;5086;50.830;7.102;2023-07-20T08:26:36;5.20;;;3.50;;
10094;SDS011;5086;50.830;7.102;2023-07-20T08:29:03;4.50;;;2.80;;
10094;SDS011;5086;50.830;7.102;2023-07-20T08:31:32;14.93;;;3.67;;
10094;SDS011;5086;50.830;7.102;2023-07-20T08:33:59;4.83;;;3.70;;
10094;SDS011;5086;50.830;7.102;2023-07-20T08:36:26;3.53;;;3.10;;
10094;SDS011;5086;50.830;7.102;2023-07-20T08:38:53;4.03;;;3.13;;
10094;SDS011;5086;50.830;7.102;2023-07-20T08:41:20;3.93;;;2.80;;
10094;SDS011;5086;50.830;7.102;2023-07-20T08:43:47;3.60;;;2.67;;
10094;SDS011;5086;50.830;7.102;2023-07-20T08:46:15;3.43;;;2.60;;
10094;SDS011;5086;50.830;7.102;2023-07-20T08:48:44;3.20;;;2.30;;
10094;SDS011;5086;50.830;7.102;2023-07-20T08:51:13;2.80;;;2.20;;
10094;SDS011;5086;50.830;7.102;2023-07-20T08:53:41;8.17;;;2.47;;
10094;SDS011;5086;50.830;7.102;2023-07-20T08:56:11;3.90;;;2.77;;
10094;SDS011;5086;50.830;7.102;2023-07-20T08:58:47;3.13;;;2.63;;
10094;SDS011;5086;50.830;7.102;2023-07-20T09:01:20;4.83;;;2.93;;
10094;SDS011;5086;50.830;7.102;2023-07-20T09:03:54;2.90;;;2.40;;
10094;SDS011;5086;50.830;7.102;2023-07-20T09:06:30;3.63;;;2.50;;
10094;SDS011;5086;50.830;7.102;2023-07-20T09:09:03;2.90;;;2.37;;
10094;SDS011;5086;50.830;7.102;2023-07-20T09:11:40;2.20;;;2.07;;
10094;SDS011;5086;50.830;7.102;2023-07-20T09:14:07;3.30;;;2.13;;
10094;SDS011;5086;50.830;7.102;2023-07-20T09:16:49;2.90;;;2.17;;
10094;SDS011;5086;50.830;7.102;2023-07-20T09:19:25;2.37;;;2.00;;
10094;SDS011;5086;50.830;7.102;2023-07-20T09:21:52;2.10;;;1.90;;
10094;SDS011;5086;50.830;7.102;2023-07-20T09:24:19;3.20;;;2.10;;
10094;SDS011;5086;50.830;7.102;2023-07-20T09:26:54;3.70;;;2.20;;
10094;SDS011;5086;50.830;7.102;2023-07-20T09:29:22;2.93;;;2.43;;
10094;SDS011;5086;50.830;7.102;2023-07-20T09:31:58;2.80;;;1.90;;
10094;SDS011;5086;50.830;7.102;2023-07-20T09:34:28;3.10;;;2.33;;
10094;SDS011;5086;50.830;7.102;2023-07-20T09:36:56;4.60;;;2.57;;
10094;SDS011;5086;50.830;7.102;2023-07-20T09:39:24;2.50;;;2.23;;
10094;SDS011;5086;50.830;7.102;2023-07-20T09:41:50;5.13;;;2.40;;
10094;SDS011;5086;50.830;7.102;2023-07-20T09:44:18;2.93;;;2.43;;
10094;SDS011;5086;50.830;7.102;2023-07-20T09:46:46;2.57;;;2.33;;
10094;SDS011;5086;50.830;7.102;2023-07-20T09:49:13;3.20;;;1.97;;
10094;SDS011;5086;50.830;7.102;2023-07-20T09:51:42;5.63;;;2.73;;
10094;SDS011;5086;50.830;7.102;2023-07-20T09:54:10;2.27;;;2.07;;
10094;SDS011;5086;50.830;7.102;2023-07-20T09:56:39;3.90;;;2.23;;
10094;SDS011;5086;50.830;7.102;2023-07-20T09:59:08;2.97;;;2.27;;
10094;SDS011;5086;50.830;7.102;2023-07-20T10:01:35;2.50;;;2.30;;
10094;SDS011;5086;50.830;7.102;2023-07-20T10:04:03;2.00;;;1.90;;
10094;SDS011;5086;50.830;7.102;2023-07-20T10:06:32;2.47;;;1.97;;
10094;SDS011;5086;50.830;7.102;2023-07-20T10:09:03;2.20;;;2.00;;
10094;SDS011;5086;50.830;7.102;2023-07-20T10:11:34;3.67;;;1.97;;
10094;SDS011;5086;50.830;7.102;2023-07-20T10:14:03;3.63;;;2.30;;
10094;SDS011;5086;50.830;7.102;2023-07-20T10:16:34;2.00;;;1.80;;
10094;SDS011;5086;50.830;7.102;2023-07-20T10:19:03;3.50;;;1.80;;
10094;SDS011;5086;50.830;7.102;2023-07-20T10:21:37;3.07;;;2.33;;
10094;SDS011;5086;50.830;7.102;2023-07-20T10:24:10;2.40;;;2.20;;
10094;SDS011;5086;50.830;7.102;2023-07-20T10:26:38;2.30;;;2.00;;
10094;SDS011;5086;50.830;7.102;2023-07-20T10:29:05;3.03;;;2.13;;
10094;SDS011;5086;50.830;7.102;2023-07-20T10:31:32;1.77;;;1.67;;
10094;SDS011;5086;50.830;7.102;2023-07-20T10:34:01;1.90;;;1.80;;
10094;SDS011;5086;50.830;7.102;2023-07-20T10:36:28;2.40;;;1.77;;
10094;SDS011;5086;50.830;7.102;2023-07-20T10:38:55;2.40;;;2.20;;
10094;SDS011;5086;50.830;7.102;2023-07-20T10:41:28;2.30;;;2.00;;
10094;SDS011;5086;50.830;7.102;2023-07-20T10:44:01;4.20;;;2.17;;
10094;SDS011;5086;50.830;7.102;2023-07-20T10:46:36;2.60;;;2.10;;
10094;SDS011;5086;50.830;7.102;2023-07-20T10:49:10;1.70;;;1.60;;
10094;SDS011;5086;50.830;7.102;2023-07-20T10:51:41;6.67;;;1.90;;
10094;SDS011;5086;50.830;7.102;2023-07-20T10:54:09;3.40;;;1.90;;
10094;SDS011;5086;50.830;7.102;2023-07-20T10:57:31;1.70;;;1.60;;
10094;SDS011;5086;50.830;7.102;2023-07-20T11:00:11;2.33;;;2.13;;
10094;SDS011;5086;50.830;7.102;2023-07-20T11:02:47;2.53;;;2.10;;
10094;SDS011;5086;50.830;7.102;2023-07-20T11:05:31;1.97;;;1.80;;
10094;SDS011;5086;50.830;7.102;2023-07-20T11:08:03;2.07;;;1.83;;
10094;SDS011;5086;50.830;7.102;2023-07-20T11:10:34;4.03;;;1.90;;
10094;SDS011;5086;50.830;7.102;2023-07-20T11:13:19;1.87;;;1.77;;
10094;SDS011;5086;50.830;7.102;2023-07-20T11:16:03;1.87;;;1.77;;
10094;SDS011;5086;50.830;7.102;2023-07-20T11:18:33;6.10;;;2.10;;
10094;SDS011;5086;50.830;7.102;2023-07-20T11:21:06;1.70;;;1.60;;
10094;SDS011;5086;50.830;7.102;2023-07-20T11:23:37;2.00;;;1.70;;
10094;SDS011;5086;50.830;7.102;2023-07-20T11:26:05;1.73;;;1.63;;
10094;SDS011;5086;50.830;7.102;2023-07-20T11:28:35;3.87;;;1.63;;
10094;SDS011;5086;50.830;7.102;2023-07-20T11:31:02;1.60;;;1.50;;
10094;SDS011;5086;50.830;7.102;2023-07-20T11:33:30;2.00;;;1.80;;
10094;SDS011;5086;50.830;7.102;2023-07-20T11:36:00;1.60;;;1.50;;
10094;SDS011;5086;50.830;7.102;2023-07-20T11:38:27;1.70;;;1.60;;
10094;SDS011;5086;50.830;7.102;2023-07-20T11:40:54;5.13;;;1.53;;
10094;SDS011;5086;50.830;7.102;2023-07-20T11:43:22;2.40;;;2.10;;
10094;SDS011;5086;50.830;7.102;2023-07-20T11:45:52;3.30;;;1.50;;
10094;SDS011;5086;50.830;7.102;2023-07-20T11:48:19;1.47;;;1.37;;
10094;SDS011;5086;50.830;7.102;2023-07-20T11:50:46;2.23;;;1.50;;
10094;SDS011;5086;50.830;7.102;2023-07-20T11:53:14;1.93;;;1.60;;
10094;SDS011;5086;50.830;7.102;2023-07-20T11:55:42;1.70;;;1.37;;
10094;SDS011;5086;50.830;7.102;2023-07-20T11:58:12;1.80;;;1.60;;
10094;SDS011;5086;50.830;7.102;2023-07-20T12:00:41;1.70;;;1.50;;
10094;SDS011;5086;50.830;7.102;2023-07-20T12:03:12;1.70;;;1.60;;
10094;SDS011;5086;50.830;7.102;2023-07-20T12:05:40;1.97;;;1.60;;
10094;SDS011;5086;50.830;7.102;2023-07-20T12:08:07;2.20;;;1.50;;
10094;SDS011;5086;50.830;7.102;2023-07-20T12:10:48;3.13;;;1.70;;
10094;SDS011;5086;50.830;7.102;2023-07-20T12:13:15;1.87;;;1.73;;
10094;SDS011;5086;50.830;7.102;2023-07-20T12:15:42;1.63;;;1.50;;
10094;SDS011;5086;50.830;7.102;2023-07-20T12:18:11;1.73;;;1.43;;
10094;SDS011;5086;50.830;7.102;2023-07-20T12:20:38;1.53;;;1.43;;
10094;SDS011;5086;50.830;7.102;2023-07-20T12:23:08;2.50;;;1.30;;
10094;SDS011;5086;50.830;7.102;2023-07-20T12:25:39;2.60;;;1.80;;
10094;SDS011;5086;50.830;7.102;2023-07-20T12:28:08;1.90;;;1.47;;
10094;SDS011;5086;50.830;7.102;2023-07-20T12:30:36;2.53;;;1.60;;
10094;SDS011;5086;50.830;7.102;2023-07-20T12:33:03;1.33;;;1.23;;
10094;SDS011;5086;50.830;7.102;2023-07-20T12:35:32;1.93;;;1.30;;
10094;SDS011;5086;50.830;7.102;2023-07-20T12:38:00;1.93;;;1.80;;
10094;SDS011;5086;50.830;7.102;2023-07-20T12:40:27;1.87;;;1.67;;
10094;SDS011;5086;50.830;7.102;2023-07-20T12:42:54;2.70;;;1.40;;
10094;SDS011;5086;50.830;7.102;2023-07-20T12:45:21;1.47;;;1.37;;
10094;SDS011;5086;50.830;7.102;2023-07-20T12:47:48;3.17;;;1.57;;
10094;SDS011;5086;50.830;7.102;2023-07-20T12:50:15;5.50;;;1.43;;
10094;SDS011;5086;50.830;7.102;2023-07-20T12:52:44;1.23;;;1.13;;
10094;SDS011;5086;50.830;7.102;2023-07-20T12:55:11;1.97;;;1.47;;
10094;SDS011;5086;50.830;7.102;2023-07-20T12:57:38;2.30;;;1.30;;
10094;SDS011;5086;50.830;7.102;2023-07-20T13:00:09;1.23;;;1.17;;
10094;SDS011;5086;50.830;7.102;2023-07-20T13:02:38;1.63;;;1.40;;
10094;SDS011;5086;50.830;7.102;2023-07-20T13:05:06;3.47;;;1.30;;
10094;SDS011;5086;50.830;7.102;2023-07-20T13:07:36;1.20;;;1.07;;
10094;SDS011;5086;50.830;7.102;2023-07-20T13:10:06;2.03;;;1.50;;
10094;SDS011;5086;50.830;7.102;2023-07-20T13:12:34;1.80;;;1.63;;
10094;SDS011;5086;50.830;7.102;2023-07-20T13:15:02;1.63;;;1.20;;
10094;SDS011;5086;50.830;7.102;2023-07-20T13:17:31;5.17;;;1.40;;
10094;SDS011;5086;50.830;7.102;2023-07-20T13:20:04;1.60;;;1.50;;
10094;SDS011;5086;50.830;7.102;2023-07-20T13:22:32;1.40;;;1.30;;
10094;SDS011;5086;50.830;7.102;2023-07-20T13:25:00;2.20;;;1.43;;
10094;SDS011;5086;50.830;7.102;2023-07-20T13:27:28;2.33;;;1.50;;
10094;SDS011;5086;50.830;7.102;2023-07-20T13:29:57;1.60;;;1.50;;
10094;SDS011;5086;50.830;7.102;2023-07-20T13:32:25;1.50;;;1.40;;
10094;SDS011;5086;50.830;7.102;2023-07-20T13:34:53;1.50;;;1.40;;
10094;SDS011;5086;50.830;7.102;2023-07-20T13:37:20;1.30;;;1.20;;
10094;SDS011;5086;50.830;7.102;2023-07-20T13:39:47;1.40;;;1.23;;
10094;SDS011;5086;50.830;7.102;2023-07-20T13:42:14;1.87;;;1.40;;
10094;SDS011;5086;50.830;7.102;2023-07-20T13:44:42;1.30;;;1.20;;
10094;SDS011;5086;50.830;7.102;2023-07-20T13:47:11;2.23;;;1.60;;
10094;SDS011;5086;50.830;7.102;2023-07-20T13:49:38;1.40;;;1.30;;
10094;SDS011;5086;50.830;7.102;2023-07-20T13:52:05;2.10;;;1.50;;
10094;SDS011;5086;50.830;7.102;2023-07-20T13:54:34;1.50;;;1.40;;
10094;SDS011;5086;50.830;7.102;2023-07-20T13:57:04;1.57;;;1.40;;
10094;SDS011;5086;50.830;7.102;2023-07-20T13:59:31;5.23;;;1.40;;
10094;SDS011;5086;50.830;7.102;2023-07-20T14:02:00;1.40;;;1.30;;
10094;SDS011;5086;50.830;7.102;2023-07-20T14:04:31;1.30;;;1.20;;
10094;SDS011;5086;50.830;7.102;2023-07-20T14:06:58;1.67;;;1.20;;
10094;SDS011;5086;50.830;7.102;2023-07-20T14:09:24;3.23;;;1.40;;
10094;SDS011;5086;50.830;7.102;2023-07-20T14:12:03;1.83;;;1.30;;
10094;SDS011;5086;50.830;7.102;2023-07-20T14:14:31;1.70;;;1.50;;
10094;SDS011;5086;50.830;7.102;2023-07-20T14:16:58;1.60;;;1.40;;
10094;SDS011;5086;50.830;7.102;2023-07-20T14:19:26;1.20;;;1.10;;
10094;SDS011;5086;50.830;7.102;2023-07-20T14:21:56;1.50;;;1.40;;
10094;SDS011;5086;50.830;7.102;2023-07-20T14:24:27;1.30;;;1.20;;
10094;SDS011;5086;50.830;7.102;2023-07-20T14:26:54;2.40;;;1.40;;
10094;SDS011;5086;50.830;7.102;2023-07-20T14:29:21;1.50;;;1.40;;
10094;SDS011;5086;50.830;7.102;2023-07-20T14:31:49;1.20;;;1.10;;
10094;SDS011;5086;50.830;7.102;2023-07-20T14:34:19;1.37;;;1.27;;
10094;SDS011;5086;50.830;7.102;2023-07-20T14:36:46;1.50;;;1.40;;
10094;SDS011;5086;50.830;7.102;2023-07-20T14:39:13;2.87;;;1.10;;
10094;SDS011;5086;50.830;7.102;2023-07-20T14:41:40;2.67;;;1.43;;
10094;SDS011;5086;50.830;7.102;2023-07-20T14:44:10;1.70;;;1.60;;
10094;SDS011;5086;50.830;7.102;2023-07-20T14:46:37;1.33;;;1.23;;
10094;SDS011;5086;50.830;7.102;2023-07-20T14:49:07;1.60;;;1.30;;
10094;SDS011;5086;50.830;7.102;2023-07-20T14:51:37;3.93;;;1.40;;
10094;SDS011;5086;50.830;7.102;2023-07-20T14:54:09;1.60;;;1.40;;
10094;SDS011;5086;50.830;7.102;2023-07-20T14:56:37;1.40;;;1.27;;
10094;SDS011;5086;50.830;7.102;2023-07-20T14:59:06;7.43;;;1.50;;
10094;SDS011;5086;50.830;7.102;2023-07-20T15:01:33;1.70;;;1.20;;
10094;SDS011;5086;50.830;7.102;2023-07-20T15:04:00;1.30;;;1.20;;
10094;SDS011;5086;50.830;7.102;2023-07-20T15:06:27;1.37;;;1.27;;
10094;SDS011;5086;50.830;7.102;2023-07-20T15:08:57;2.23;;;1.60;;
10094;SDS011;5086;50.830;7.102;2023-07-20T15:11:35;1.20;;;1.10;;